CheckWX is a tool to help pilots better visualize weather data.  It is not intended as a substitute for an official pre-flight weather briefing.

19:45:26 UTC

ENRY METAR
Moss , Rygge Airport
Rygge, Norway
Current

55 mins ago

ENRY 041850Z AUTO 10013KT 9999NDV OVC080/// 17/05 Q0997
Observed
Jun-4 @ 18:50 UTC
Wind
  • 100° at 13 KTS
Visibility
Cloud Levels
  • Overcast at 8,000' AGL
Temperature
17°C / 63°F
Dewpoint
C / 41°F
Humidity
45%
Altimeter
29.44" Hg
Pressure
996.92 hPa
Previous

1 hour ago

ENRY 041820Z AUTO 10013KT 9999NDV SCT080/// 18/05 Q0997
Observed
Jun-4 @ 18:20 UTC
Wind
  • 100° at 13 KTS
Visibility
Cloud Levels
  • Scattered at 8,000' AGL
Temperature
18°C / 64°F
Dewpoint
C / 41°F
Humidity
43%
Altimeter
29.44" Hg
Pressure
996.92 hPa
Previous

2 hours ago

ENRY 041750Z 09013G24KT CAVOK 18/06 Q0997
Observed
Jun-4 @ 17:50 UTC
Wind
  • 090° at 13 KTS
  • Gusting to 24 KTS
Visibility
10,000+ meters
Flight Rules
VFR
Cloud Levels
  • Clear skies
Temperature
18°C / 64°F
Dewpoint
C / 43°F
Humidity
46%
Altimeter
29.44" Hg
Pressure
996.92 hPa